Terminal Aerodrome Forecast
Issued by NWS

Home | Current Version | Previous Version | Text Only | Print | Product List | Glossary On
Versions: 1 2 3 4 5 6 7 8 9 10 11 12 13 14
972
FTUS45 KPSR 260528
TAFBLH
TAF
KBLH 260528Z 2606/2706 23010KT P6SM BKN120
     FM260900 VRB05KT P6SM SCT120
     FM261800 19011KT P6SM SKC=

USA.gov is the U.S. government's official web portal to all federal, state and local government web resources and services.